»·PEaware :: N475RS KLAS-KSAN

N475RS :: KLAS-KSAN

FLIGHT INFORMATION

Flight Status: Arrived
Operator: Privately registered:
United States
More flights under this callsign
Pilot: Aker J. (16898)
Aircraft: GULFSTREAM G-1159C GULFSTREAM 4
(GLF4)
More flights by this aircraft type
Origin: KLAS McCarran Intl
United States
Destination: KSAN San Diego Intl-Lindbergh
United States
More flights between these airports :: More routes between these airports
Route: +BOACH8 LVELL LUCKI1
File this flight plan on PilotEdge
Remarks: N475RS
Altitude:
(Current/Filed)
38,000ft
Speed:
(Current/Filed)
300kts
Departed: 13-Jan-18 03:02 PM
Arrived: 13-Jan-18 03:50 PM
Distance/Time
Traveled:
225nm/0:48
Distance/Time
To Go:
Arrived

Flight Plot

Page will automatically refresh every two minutes.

Flight plan parsing failed; only flown route is shown


Map Options




Map Legend


Flown Route
Filed Route
Departure Airport
Arrival Airport
Navaid (VOR, NDB)
Fix

Horizontal Profiles

Position Reports

Time Latitude Longitude Heading Altitude Ground
Speed
13-Jan-18 14:52 36.080625 -115.171993 89 2177ft 0kts
13-Jan-18 14:53 36.080625 -115.171993 89 2177ft 0kts
13-Jan-18 14:54 36.080625 -115.171993 89 2177ft 0kts
13-Jan-18 14:55 36.080625 -115.171993 89 2177ft 0kts
13-Jan-18 14:56 36.080625 -115.171993 89 2177ft 0kts
13-Jan-18 14:57 36.080625 -115.171993 89 2177ft 0kts
13-Jan-18 14:58 36.080625 -115.171993 89 2177ft 0kts
13-Jan-18 14:59 36.080625 -115.171993 89 2177ft 0kts
13-Jan-18 15:00 36.080625 -115.171993 89 2177ft 0kts
13-Jan-18 15:01 36.080680 -115.171696 72 2175ft 5kts
13-Jan-18 15:02 36.082286 -115.168814 27 2167ft 15kts
13-Jan-18 15:03 36.085713 -115.166828 25 2153ft 17kts
13-Jan-18 15:04 36.093070 -115.162614 25 2119ft 29kts
13-Jan-18 15:05 36.098541 -115.159487 23 2099ft 18kts
13-Jan-18 15:06 36.099848 -115.157394 92 2089ft 6kts
13-Jan-18 15:07 36.099118 -115.156770 201 2088ft 0kts
13-Jan-18 15:08 36.089820 -115.162103 205 2127ft 147kts
13-Jan-18 15:09 36.040624 -115.190356 205 4374ft 219kts
13-Jan-18 15:10 36.004708 -115.230885 240 6003ft 238kts
13-Jan-18 15:11 35.974591 -115.291294 222 6768ft 237kts
13-Jan-18 15:12 35.942570 -115.302571 189 7149ft 235kts
13-Jan-18 15:13 35.889961 -115.310496 186 8553ft 234kts
13-Jan-18 15:14 35.824886 -115.310564 176 10886ft 233kts
13-Jan-18 15:15 35.757767 -115.303421 174 13689ft 264kts
13-Jan-18 15:16 35.678289 -115.294988 181 15922ft 315kts
13-Jan-18 15:17 35.587244 -115.298232 183 18036ft 357kts
13-Jan-18 15:18 35.488456 -115.301944 183 20899ft 350kts
13-Jan-18 15:19 35.393811 -115.306061 185 24804ft 349kts
13-Jan-18 15:20 35.302022 -115.309902 185 28809ft 336kts
13-Jan-18 15:21 35.210847 -115.313489 186 32995ft 339kts
13-Jan-18 15:22 35.116731 -115.317182 186 36340ft 353kts
13-Jan-18 15:23 35.016016 -115.321166 185 38273ft 398kts
13-Jan-18 15:24 34.894844 -115.325931 185 38266ft 469kts
13-Jan-18 15:25 34.768737 -115.339619 199 38301ft 484kts
13-Jan-18 15:26 34.641207 -115.392595 203 38288ft 479kts
13-Jan-18 15:27 34.517159 -115.446733 203 38351ft 480kts
13-Jan-18 15:28 34.392766 -115.500887 203 38352ft 480kts
13-Jan-18 15:29 34.274111 -115.568719 214 38358ft 477kts
13-Jan-18 15:30 34.156568 -115.640363 205 38312ft 481kts
13-Jan-18 15:31 34.041590 -115.694948 204 36320ft 465kts
13-Jan-18 15:32 33.924831 -115.750024 205 34072ft 451kts
13-Jan-18 15:33 33.822191 -115.800258 205 31908ft 428kts
13-Jan-18 15:34 33.711862 -115.853091 204 29832ft 442kts
13-Jan-18 15:35 33.597841 -115.906439 204 27670ft 433kts
13-Jan-18 15:36 33.501606 -115.975379 233 25487ft 395kts
13-Jan-18 15:37 33.438326 -116.077987 238 23063ft 380kts
13-Jan-18 15:38 33.379029 -116.179762 238 20740ft 370kts
13-Jan-18 15:39 33.309530 -116.264573 212 18727ft 363kts
13-Jan-18 15:40 33.220808 -116.319011 208 17004ft 358kts
13-Jan-18 15:41 33.134177 -116.369777 208 15325ft 337kts
13-Jan-18 15:42 33.053694 -116.416722 208 13844ft 315kts
13-Jan-18 15:43 32.982747 -116.469059 221 12517ft 298kts
13-Jan-18 15:44 32.918416 -116.533031 222 11151ft 300kts
13-Jan-18 15:45 32.855602 -116.596274 222 9845ft 299kts
13-Jan-18 15:46 32.791964 -116.660429 221 8208ft 308kts
13-Jan-18 15:47 32.745100 -116.741290 241 6895ft 300kts
13-Jan-18 15:48 32.707090 -116.824167 248 5848ft 243kts
13-Jan-18 15:49 32.692247 -116.869949 257 5053ft 224kts
13-Jan-18 15:50 32.680045 -116.915030 246 4399ft 217kts
13-Jan-18 15:51 32.683247 -116.979293 288 3558ft 186kts
13-Jan-18 15:52 32.697369 -117.038842 289 2826ft 185kts
13-Jan-18 15:53 32.709970 -117.092147 287 1673ft 152kts
13-Jan-18 15:54 32.716875 -117.120333 287 1247ft 133kts
13-Jan-18 15:55 32.726188 -117.159190 288 471ft 120kts
13-Jan-18 15:56 32.734524 -117.193611 279 25ft 40kts
13-Jan-18 15:57 32.734253 -117.194916 251 25ft 0kts
13-Jan-18 15:58 32.733904 -117.194897 118 25ft 5kts
13-Jan-18 15:59 32.734149 -117.191109 30 25ft 2kts
13-Jan-18 16:00 32.733485 -117.184527 108 25ft 22kts
13-Jan-18 16:01 32.731448 -117.176185 108 25ft 17kts
13-Jan-18 16:02 32.732639 -117.179427 322 25ft 15kts

Navigation Log

Ident Type
Flight plan parsing failed, navigation log unavailable